Kaihou Maru — JD2578 — position and weather

sailwx.info

Track history (hours):
 
Tides and Currents Weather Stations Pressure Air Temp Water Temp Dewpoint Dewpoint Depression Visibility Wind Speed Wind Dir Waves Ship Positions

Kaihou Maru

Last reported at 2018-Jun-08 23:50 UTC. Time now 2018-Jun-23 11:57 UTC.
Position N 35°35' E 139°55'.
Warning: this ship's position is 14 days out of date.

Length 68 m; draft 4.2 m.

Type: Tanker. MMSI: 431000443.

Date/timePositionNaut miles runAvg speedWind from/ knotsBaromVisibWave heightAir tempDewpointWater temp
2018-Jun-08 23:50N 35°35' E 139°55'3 5.8
2018-Jun-08 23:24N 35°35' E 139°58'  
2018-Jun-04 03:53N 35°35' E 139°55'4 0.2
2018-Jun-03 06:13N 35°32' E 139°58'2 9.0
2018-Jun-03 05:58N 35°30' E 139°57'1 0.5
2018-Jun-03 03:22N 35°29' E 139°56'0 0.0
2018-Jun-03 01:46N 35°29' E 139°56'0 0.0
2018-Jun-03 01:28N 35°29' E 139°56'0 0.0
2018-Jun-03 00:58N 35°29' E 139°56'0 0.0
2018-Jun-03 00:28N 35°29' E 139°56'0 0.0
2018-Jun-02 20:53N 35°29' E 139°56'410.1
2018-Jun-02 20:28N 35°28' E 139°51'612.3
2018-Jun-02 20:01N 35°23' E 139°46'611.9
2018-Jun-02 19:30N 35°17' E 139°45'612.1
2018-Jun-02 19:00N 35°12' E 139°47'612.3
2018-Jun-02 18:30N 35°06' E 139°45'612.2
2018-Jun-02 18:00N 35°02' E 139°39'239 5.6
2018-May-31 23:13N 33°50' E 135°02'212.1
2018-May-31 23:00N 33°52' E 135°01'712.2
2018-May-31 22:25N 33°59' E 134°60'512.0
2018-May-31 21:59N 34°04' E 134°59'612.2
2018-May-31 21:31N 34°10' E 134°58'713.4
2018-May-31 21:00N 34°17' E 134°58'612.1
2018-May-31 20:30N 34°23' E 134°59'612.8
2018-May-31 20:00N 34°29' E 135°02'612.5
2018-May-31 19:30N 34°35' E 135°03'1012.5
2018-May-31 18:44N 34°34' E 134°51'313.6
2018-May-31 18:30N 34°33' E 134°48'612.5
2018-May-31 18:00N 34°30' E 134°41'612.6
2018-May-31 17:30N 34°28' E 134°34'  
Track history (hours):
 
Tides and Currents Weather Stations Pressure Air Temp Water Temp Dewpoint Dewpoint Depression Visibility Wind Speed Wind Dir Waves Ship Positions

Kaihou Maru

Last reported at 2018-Jun-08 23:50 UTC. Time now 2018-Jun-23 11:57 UTC.
Position N 35°35' E 139°55'.
Warning: this ship's position is 14 days out of date.

Length 68 m; draft 4.2 m.

Type: Tanker. MMSI: 431000443.

Date/timePositionNaut miles runAvg speedWind from/ knotsBaromVisibWave heightAir tempDewpointWater temp
2018-Jun-08 23:50N 35°35' E 139°55'3 5.8
2018-Jun-08 23:24N 35°35' E 139°58'  
2018-Jun-04 03:53N 35°35' E 139°55'4 0.2
2018-Jun-03 06:13N 35°32' E 139°58'2 9.0
2018-Jun-03 05:58N 35°30' E 139°57'1 0.5
2018-Jun-03 03:22N 35°29' E 139°56'0 0.0
2018-Jun-03 01:46N 35°29' E 139°56'0 0.0
2018-Jun-03 01:28N 35°29' E 139°56'0 0.0
2018-Jun-03 00:58N 35°29' E 139°56'0 0.0
2018-Jun-03 00:28N 35°29' E 139°56'0 0.0
2018-Jun-02 20:53N 35°29' E 139°56'410.1
2018-Jun-02 20:28N 35°28' E 139°51'612.3
2018-Jun-02 20:01N 35°23' E 139°46'611.9
2018-Jun-02 19:30N 35°17' E 139°45'612.1
2018-Jun-02 19:00N 35°12' E 139°47'612.3
2018-Jun-02 18:30N 35°06' E 139°45'612.2
2018-Jun-02 18:00N 35°02' E 139°39'239 5.6
2018-May-31 23:13N 33°50' E 135°02'212.1
2018-May-31 23:00N 33°52' E 135°01'712.2
2018-May-31 22:25N 33°59' E 134°60'512.0
2018-May-31 21:59N 34°04' E 134°59'612.2
2018-May-31 21:31N 34°10' E 134°58'713.4
2018-May-31 21:00N 34°17' E 134°58'612.1
2018-May-31 20:30N 34°23' E 134°59'612.8
2018-May-31 20:00N 34°29' E 135°02'612.5
2018-May-31 19:30N 34°35' E 135°03'1012.5
2018-May-31 18:44N 34°34' E 134°51'313.6
2018-May-31 18:30N 34°33' E 134°48'612.5
2018-May-31 18:00N 34°30' E 134°41'612.6
2018-May-31 17:30N 34°28' E 134°34'  

Dump ship's entire track history